createdAt,value
2022-11-22T00:01:24.515Z,9.93
2022-11-22T00:03:52.808Z,9.91
2022-11-22T00:06:22.679Z,9.88
2022-11-22T00:08:50.862Z,9.91
2022-11-22T00:11:19.073Z,10.02
2022-11-22T00:13:47.534Z,10.08
2022-11-22T00:16:16.010Z,10.05
2022-11-22T00:18:44.582Z,10.03
2022-11-22T00:21:13.021Z,10.11
2022-11-22T00:23:43.255Z,10.14
2022-11-22T00:26:12.408Z,10.10
2022-11-22T00:28:40.892Z,10.09
2022-11-22T00:31:09.065Z,10.02
2022-11-22T00:33:37.565Z,9.91
2022-11-22T00:36:06.494Z,9.88
2022-11-22T00:38:34.743Z,9.81
2022-11-22T00:41:04.556Z,9.88
2022-11-22T00:43:32.965Z,9.92
2022-11-22T00:46:01.333Z,9.94
2022-11-22T00:48:29.627Z,9.93
2022-11-22T00:50:57.854Z,10.06
2022-11-22T00:53:26.198Z,10.11
2022-11-22T00:55:54.377Z,10.28
2022-11-22T00:58:24.518Z,10.40
2022-11-22T01:00:56.581Z,10.40
2022-11-22T01:03:25.470Z,10.43
2022-11-22T01:05:53.775Z,10.46
2022-11-22T01:08:21.977Z,10.52
2022-11-22T01:10:50.171Z,10.51
2022-11-22T01:13:18.357Z,10.58
2022-11-22T01:15:48.744Z,10.64
2022-11-22T01:18:16.892Z,10.76
2022-11-22T01:20:45.202Z,10.74
2022-11-22T01:23:13.840Z,10.81
2022-11-22T01:25:45.019Z,10.79
2022-11-22T01:28:13.819Z,10.85
2022-11-22T01:30:43.009Z,10.86
2022-11-22T01:33:13.163Z,10.72
2022-11-22T01:35:41.374Z,10.64
2022-11-22T01:38:09.796Z,10.53
2022-11-22T01:40:38.103Z,10.45
2022-11-22T01:43:12.815Z,10.38
2022-11-22T01:45:45.437Z,10.34
2022-11-22T01:48:36.803Z,10.27
2022-11-22T01:51:11.236Z,10.22
2022-11-22T01:53:41.036Z,10.25
2022-11-22T01:56:13.759Z,10.26
2022-11-22T01:58:44.943Z,10.33
2022-11-22T02:01:13.193Z,10.42
2022-11-22T02:03:49.181Z,10.50
2022-11-22T02:06:18.575Z,10.57
2022-11-22T02:08:55.219Z,10.64
2022-11-22T02:11:30.979Z,10.65
2022-11-22T02:14:02.380Z,10.60
2022-11-22T02:16:30.973Z,10.58
2022-11-22T02:19:00.930Z,10.63
2022-11-22T02:21:30.202Z,10.72
2022-11-22T02:24:06.791Z,10.75
2022-11-22T02:26:37.449Z,10.78
2022-11-22T02:29:09.002Z,10.77
2022-11-22T02:31:41.048Z,10.80
2022-11-22T02:34:09.620Z,10.83
2022-11-22T02:36:42.935Z,10.80
2022-11-22T02:39:14.167Z,10.85
2022-11-22T02:41:45.810Z,10.81
2022-11-22T02:44:15.103Z,10.73
2022-11-22T02:46:51.592Z,10.54
2022-11-22T02:49:20.565Z,10.43
2022-11-22T02:51:49.134Z,10.23
2022-11-22T02:54:17.756Z,10.18
2022-11-22T02:56:47.932Z,10.21
2022-11-22T02:59:16.375Z,10.24
2022-11-22T03:01:46.049Z,10.22
2022-11-22T03:04:25.102Z,10.20
2022-11-22T03:06:55.951Z,10.27
2022-11-22T03:09:24.745Z,10.25
2022-11-22T03:11:55.578Z,10.28
2022-11-22T03:14:23.969Z,10.37
2022-11-22T03:16:53.356Z,10.48
2022-11-22T03:19:21.763Z,10.59
2022-11-22T03:21:50.747Z,10.56
2022-11-22T03:24:20.284Z,10.58
2022-11-22T03:26:49.676Z,10.57
2022-11-22T03:29:19.631Z,10.47
2022-11-22T03:31:47.810Z,10.47
2022-11-22T03:34:16.782Z,10.52
2022-11-22T03:36:45.281Z,10.52
2022-11-22T03:39:13.535Z,10.46
2022-11-22T03:41:41.831Z,10.42
2022-11-22T03:44:09.976Z,10.31
2022-11-22T03:46:39.812Z,10.34
2022-11-22T03:49:08.379Z,10.32
2022-11-22T03:51:36.657Z,10.33
2022-11-22T03:54:04.910Z,10.34
2022-11-22T03:56:33.379Z,10.37
2022-11-22T03:59:01.645Z,10.34
2022-11-22T04:01:29.977Z,10.38
2022-11-22T04:04:00.273Z,10.41
2022-11-22T04:06:28.772Z,10.45
2022-11-22T04:08:57.318Z,10.40
2022-11-22T04:11:26.072Z,10.33
2022-11-22T04:14:14.009Z,10.24
2022-11-22T04:16:42.696Z,10.28
2022-11-22T04:19:12.372Z,10.29
2022-11-22T04:21:39.628Z,10.42
2022-11-22T04:24:26.626Z,10.47
2022-11-22T04:26:55.607Z,10.55
2022-11-22T04:29:24.380Z,10.68
2022-11-22T04:32:10.628Z,10.69
2022-11-22T04:34:40.297Z,10.71
2022-11-22T04:37:08.490Z,10.66
2022-11-22T04:39:37.061Z,10.65
2022-11-22T04:42:23.119Z,10.69
2022-11-22T04:44:51.417Z,10.72
2022-11-22T04:47:34.169Z,10.75
2022-11-22T04:50:26.388Z,10.71
2022-11-22T04:52:54.749Z,10.71
2022-11-22T04:55:23.254Z,10.69
2022-11-22T04:57:56.072Z,10.68
2022-11-22T05:00:28.625Z,10.64
2022-11-22T05:02:57.460Z,10.67
2022-11-22T05:05:28.022Z,10.65
2022-11-22T05:07:57.353Z,10.71
2022-11-22T05:10:27.094Z,10.72
2022-11-22T05:12:57.363Z,10.81
2022-11-22T05:15:26.041Z,10.83
2022-11-22T05:17:54.390Z,10.85
2022-11-22T05:20:24.865Z,10.75
2022-11-22T05:23:12.167Z,10.70
2022-11-22T05:25:40.743Z,10.64
2022-11-22T05:28:09.695Z,10.67
2022-11-22T05:30:40.237Z,10.66
2022-11-22T05:33:09.380Z,10.72
2022-11-22T05:35:39.376Z,10.74
2022-11-22T05:38:09.705Z,10.73
2022-11-22T05:40:38.037Z,10.74
2022-11-22T05:43:07.152Z,10.77
2022-11-22T05:45:35.766Z,10.68
2022-11-22T05:48:04.080Z,10.62
2022-11-22T05:50:32.540Z,10.53
2022-11-22T05:53:03.482Z,10.46
2022-11-22T05:55:36.870Z,10.40
2022-11-22T05:58:06.107Z,10.36
2022-11-22T06:00:36.882Z,10.31
2022-11-22T06:03:06.721Z,10.26
2022-11-22T06:05:35.083Z,10.22
2022-11-22T06:08:05.257Z,10.20
2022-11-22T06:10:37.439Z,10.18
2022-11-22T06:13:06.856Z,10.15
2022-11-22T06:15:35.570Z,10.21
2022-11-22T06:18:04.541Z,10.32
2022-11-22T06:20:33.539Z,10.45
2022-11-22T06:23:01.983Z,10.51
2022-11-22T06:25:30.338Z,10.51
2022-11-22T06:28:01.536Z,10.59
2022-11-22T06:30:30.681Z,10.59
2022-11-22T06:32:59.573Z,10.58
2022-11-22T06:35:28.146Z,10.64
2022-11-22T06:38:00.656Z,10.75
2022-11-22T06:40:29.646Z,10.78
2022-11-22T06:42:58.087Z,10.74
2022-11-22T06:45:28.571Z,10.84
2022-11-22T06:47:59.636Z,10.79
2022-11-22T06:50:30.200Z,10.83
2022-11-22T06:52:58.634Z,10.77
2022-11-22T06:55:49.757Z,10.69
2022-11-22T06:58:15.419Z,10.66
2022-11-22T07:00:46.417Z,10.73
2022-11-22T07:03:15.026Z,10.72
2022-11-22T07:05:51.391Z,10.69
2022-11-22T07:08:19.821Z,10.71
2022-11-22T07:10:48.265Z,10.76
2022-11-22T07:13:17.773Z,10.67
2022-11-22T07:15:55.393Z,10.55
2022-11-22T07:18:24.196Z,10.47
2022-11-22T07:20:53.478Z,10.46
2022-11-22T07:23:22.372Z,10.40
2022-11-22T07:25:51.936Z,10.38
2022-11-22T07:28:20.711Z,10.41
2022-11-22T07:30:51.445Z,10.43
2022-11-22T07:33:20.110Z,10.51
2022-11-22T07:35:48.581Z,10.54
2022-11-22T07:38:16.792Z,10.66
2022-11-22T07:40:45.070Z,10.73
2022-11-22T07:43:13.341Z,10.79
2022-11-22T07:45:41.571Z,10.80
2022-11-22T07:48:14.783Z,10.86
2022-11-22T07:50:43.428Z,10.79
2022-11-22T07:53:11.990Z,10.80
2022-11-22T07:55:40.179Z,10.84
2022-11-22T07:58:08.407Z,10.90
2022-11-22T08:00:36.840Z,11.01
2022-11-22T08:03:05.349Z,11.07
2022-11-22T08:05:35.055Z,11.18
2022-11-22T08:08:03.362Z,11.10
2022-11-22T08:10:31.594Z,11.17
2022-11-22T08:13:01.324Z,11.24
2022-11-22T08:15:29.639Z,11.21
2022-11-22T08:17:59.165Z,11.13
2022-11-22T08:20:27.523Z,11.02
2022-11-22T08:22:57.162Z,11.02
2022-11-22T08:25:25.482Z,11.00
2022-11-22T08:27:53.674Z,11.36
2022-11-22T08:30:22.038Z,12.04
2022-11-22T08:32:51.644Z,12.24
2022-11-22T08:35:19.923Z,12.53
2022-11-22T08:37:49.152Z,12.80
2022-11-22T08:40:19.002Z,13.12
2022-11-22T08:42:47.246Z,13.59
2022-11-22T08:45:15.520Z,13.89
2022-11-22T08:47:43.755Z,13.89
2022-11-22T08:50:12.248Z,13.87
2022-11-22T08:52:40.493Z,13.36
2022-11-22T08:55:09.858Z,13.02
2022-11-22T08:57:39.530Z,12.89
2022-11-22T09:00:09.419Z,13.61
2022-11-22T09:02:37.642Z,14.60
2022-11-22T09:05:06.441Z,15.51
2022-11-22T09:10:23.162Z,15.43
2022-11-22T09:12:52.954Z,14.87
2022-11-22T09:15:21.276Z,14.15
2022-11-22T09:17:49.513Z,13.52
2022-11-22T09:20:18.576Z,13.21
2022-11-22T09:22:46.788Z,13.61
2022-11-22T09:25:15.137Z,13.87
2022-11-22T09:27:43.396Z,14.38
2022-11-22T09:30:14.057Z,14.55
2022-11-22T09:32:44.647Z,15.00
2022-11-22T09:35:13.051Z,15.81
2022-11-22T09:37:41.343Z,16.48
2022-11-22T09:40:11.094Z,16.85
2022-11-22T09:43:14.758Z,16.19
2022-11-22T09:46:10.236Z,15.81
2022-11-22T09:48:49.989Z,15.25
2022-11-22T09:51:22.365Z,14.66
2022-11-22T09:53:54.208Z,14.19
2022-11-22T09:56:26.552Z,14.04
2022-11-22T09:58:56.834Z,13.75
2022-11-22T10:01:30.067Z,13.90
2022-11-22T10:04:05.385Z,14.82
2022-11-22T10:06:38.055Z,15.22
2022-11-22T10:09:18.867Z,15.13
2022-11-22T10:11:54.218Z,14.71
2022-11-22T10:14:31.040Z,15.25
2022-11-22T10:17:08.311Z,15.94
2022-11-22T10:19:41.053Z,16.51
2022-11-22T10:22:12.909Z,16.85
2022-11-22T10:24:41.162Z,17.05
2022-11-22T10:27:14.553Z,16.91
2022-11-22T10:29:49.262Z,16.38
2022-11-22T10:32:25.859Z,15.57
2022-11-22T10:35:11.991Z,14.78
2022-11-22T10:37:51.245Z,14.09
2022-11-22T10:40:28.129Z,13.80
2022-11-22T10:43:17.825Z,14.10
2022-11-22T10:45:50.359Z,14.64
2022-11-22T10:48:28.017Z,14.79
2022-11-22T10:51:04.783Z,14.65
2022-11-22T10:53:47.023Z,14.18
2022-11-22T10:56:26.055Z,13.91
2022-11-22T10:59:16.533Z,13.73
2022-11-22T11:01:54.062Z,13.74
2022-11-22T11:04:25.605Z,13.86
2022-11-22T11:07:11.566Z,13.94
2022-11-22T11:12:41.306Z,13.88
2022-11-22T11:15:18.780Z,14.04
2022-11-22T11:17:52.597Z,13.99
2022-11-22T11:20:26.662Z,13.98
2022-11-22T11:25:44.574Z,14.12
2022-11-22T11:28:18.670Z,14.05
2022-11-22T11:30:49.809Z,13.99
2022-11-22T11:33:21.761Z,13.69
2022-11-22T11:35:55.043Z,13.42
2022-11-22T11:38:37.891Z,13.30
2022-11-22T11:41:22.411Z,13.29
2022-11-22T11:43:51.848Z,13.31
2022-11-22T11:46:21.966Z,13.31
2022-11-22T11:48:51.834Z,13.41
2022-11-22T11:51:25.982Z,13.41
2022-11-22T11:54:07.190Z,13.34
2022-11-22T11:56:50.203Z,13.29
2022-11-22T11:59:20.816Z,13.35
2022-11-22T12:01:55.744Z,13.42
2022-11-22T12:04:27.436Z,13.59
2022-11-22T12:07:06.293Z,13.83
2022-11-22T12:09:37.440Z,14.07
2022-11-22T12:12:35.320Z,14.25
2022-11-22T12:15:13.769Z,14.29
2022-11-22T12:17:52.397Z,14.23
2022-11-22T12:20:26.638Z,14.20
2022-11-22T12:23:07.167Z,14.14
2022-11-22T12:25:38.481Z,14.12
2022-11-22T12:28:18.043Z,14.12
2022-11-22T12:30:50.647Z,14.18
2022-11-22T12:33:23.696Z,14.14
2022-11-22T12:35:56.732Z,14.05
2022-11-22T12:38:31.501Z,14.01
2022-11-22T12:41:04.918Z,13.85
2022-11-22T12:43:39.416Z,13.77
2022-11-22T12:46:12.966Z,13.67
2022-11-22T12:48:49.007Z,13.65
2022-11-22T12:51:24.897Z,13.77
2022-11-22T12:53:58.873Z,13.88
2022-11-22T12:56:33.536Z,13.97
2022-11-22T12:59:07.951Z,13.96
2022-11-22T13:01:45.565Z,14.09
2022-11-22T13:04:27.763Z,14.10
2022-11-22T13:07:04.186Z,14.13
2022-11-22T13:09:37.495Z,14.24
2022-11-22T13:12:10.337Z,14.40
2022-11-22T13:14:43.856Z,14.43
2022-11-22T13:17:14.106Z,14.41
2022-11-22T13:19:47.178Z,14.39
2022-11-22T13:22:26.332Z,14.30
2022-11-22T13:25:09.225Z,14.32
2022-11-22T13:27:44.418Z,14.31
2022-11-22T13:30:20.327Z,14.30
2022-11-22T13:32:52.893Z,14.32
2022-11-22T13:35:30.455Z,14.30
2022-11-22T13:38:03.393Z,14.33
2022-11-22T13:40:36.329Z,14.38
2022-11-22T13:43:33.637Z,14.29
2022-11-22T13:46:04.387Z,14.17
2022-11-22T13:49:15.473Z,14.06
2022-11-22T13:51:55.412Z,14.06
2022-11-22T13:54:58.885Z,14.03
2022-11-22T13:57:36.417Z,13.99
2022-11-22T14:00:47.785Z,14.01
2022-11-22T14:03:36.033Z,13.87
2022-11-22T14:06:22.411Z,13.67
2022-11-22T14:08:50.773Z,13.55
2022-11-22T14:11:39.054Z,13.41
2022-11-22T14:14:20.522Z,13.45
2022-11-22T14:17:01.292Z,13.44
2022-11-22T14:19:41.583Z,13.39
2022-11-22T14:22:21.828Z,13.35
2022-11-22T14:25:05.821Z,13.35
2022-11-22T14:27:46.677Z,13.27
2022-11-22T14:30:19.451Z,13.20
2022-11-22T14:33:03.603Z,13.05
2022-11-22T14:35:37.509Z,12.92
2022-11-22T14:38:31.048Z,12.78
2022-11-22T14:41:46.623Z,12.62
2022-11-22T14:44:20.331Z,12.55
2022-11-22T14:46:56.830Z,12.50
2022-11-22T14:49:38.406Z,12.41
2022-11-22T14:52:13.034Z,12.36
2022-11-22T14:54:46.899Z,12.28
2022-11-22T14:57:20.145Z,12.22
2022-11-22T15:00:14.316Z,12.20
2022-11-22T15:03:28.767Z,12.18
2022-11-22T15:09:15.257Z,12.23
2022-11-22T15:09:55.734Z,12.23
2022-11-22T15:12:54.299Z,12.16
2022-11-22T15:59:10.983Z,11.62
2022-11-22T16:01:41.598Z,11.58
2022-11-22T16:04:21.842Z,11.53
2022-11-22T16:06:51.409Z,11.47
2022-11-22T16:09:35.439Z,11.41
2022-11-22T16:12:07.352Z,11.39
2022-11-22T16:14:46.956Z,11.34
2022-11-22T16:17:33.037Z,11.22
2022-11-22T16:20:29.758Z,11.19
2022-11-22T16:23:19.976Z,11.16
2022-11-22T16:25:50.335Z,11.17
2022-11-22T16:28:30.828Z,11.17
2022-11-22T16:31:01.107Z,11.19
2022-11-22T16:33:30.509Z,11.17
2022-11-22T16:36:01.006Z,11.14
2022-11-22T16:38:30.517Z,11.10
2022-11-22T16:41:00.175Z,11.02
2022-11-22T16:43:37.168Z,10.95
2022-11-22T16:46:05.780Z,10.90
2022-11-22T16:48:34.103Z,10.83
2022-11-22T16:51:06.759Z,10.77
2022-11-22T16:53:41.131Z,10.73
2022-11-22T16:56:10.552Z,10.66
2022-11-22T16:58:40.141Z,10.57
2022-11-22T17:01:11.393Z,10.50
2022-11-22T17:03:40.317Z,10.45
2022-11-22T17:06:10.476Z,10.38
2022-11-22T17:08:38.692Z,10.32
2022-11-22T17:11:07.232Z,10.26
2022-11-22T17:13:35.389Z,10.22
2022-11-22T17:16:05.267Z,10.19
2022-11-22T17:18:33.438Z,10.14
2022-11-22T17:21:01.652Z,10.11
2022-11-22T17:23:36.271Z,10.08
2022-11-22T17:26:05.252Z,10.04
2022-11-22T17:28:33.770Z,10.00
2022-11-22T17:31:02.943Z,9.99
2022-11-22T17:33:32.565Z,9.98
2022-11-22T17:36:00.718Z,9.98
2022-11-22T17:38:28.947Z,9.97
2022-11-22T17:41:00.712Z,10.02
2022-11-22T17:43:28.891Z,10.07
2022-11-22T17:45:58.169Z,10.17
2022-11-22T17:48:26.371Z,10.25
2022-11-22T17:50:55.975Z,10.35
2022-11-22T17:53:24.188Z,10.42
2022-11-22T17:56:10.143Z,10.48
2022-11-22T17:58:39.093Z,10.57
2022-11-22T18:01:09.239Z,10.63
2022-11-22T18:03:37.655Z,10.69
2022-11-22T18:06:08.126Z,10.74
2022-11-22T18:08:36.889Z,10.78
2022-11-22T18:11:05.826Z,10.83
2022-11-22T18:13:37.122Z,10.88
2022-11-22T18:16:08.144Z,10.94
2022-11-22T18:18:56.228Z,10.98
2022-11-22T18:21:26.889Z,11.01
2022-11-22T18:23:55.228Z,11.04
2022-11-22T18:26:38.798Z,11.08
2022-11-22T18:31:57.196Z,11.10
2022-11-22T18:34:25.837Z,11.10
2022-11-22T18:37:00.696Z,11.11
2022-11-22T18:39:31.147Z,11.12
2022-11-22T18:42:35.447Z,11.12
2022-11-22T18:45:08.468Z,11.14
2022-11-22T18:47:36.637Z,11.15
2022-11-22T18:50:08.348Z,11.16
2022-11-22T18:52:43.061Z,11.14
2022-11-22T18:55:11.817Z,11.15
2022-11-22T18:57:40.000Z,11.15
2022-11-22T19:00:09.596Z,11.17
2022-11-22T19:02:38.173Z,11.18
2022-11-22T19:05:06.921Z,11.17
2022-11-22T19:07:36.406Z,11.17
2022-11-22T19:10:07.126Z,11.16
2022-11-22T19:12:35.590Z,11.16
2022-11-22T19:15:03.821Z,11.13
2022-11-22T19:17:32.138Z,11.10
2022-11-22T19:20:00.323Z,11.08
2022-11-22T19:22:30.013Z,11.06
2022-11-22T19:24:59.254Z,11.03
2022-11-22T19:27:28.822Z,11.05
2022-11-22T19:29:57.363Z,11.07
2022-11-22T19:32:39.143Z,11.08
2022-11-22T19:35:27.820Z,11.12
2022-11-22T19:38:08.134Z,11.14
2022-11-22T19:40:44.118Z,11.15
2022-11-22T19:43:16.486Z,11.18
2022-11-22T19:45:45.664Z,11.21
2022-11-22T19:48:16.155Z,11.27
2022-11-22T19:50:45.044Z,11.31
2022-11-22T19:53:13.424Z,11.33
2022-11-22T19:55:45.400Z,11.35
2022-11-22T19:58:15.591Z,11.38
2022-11-22T20:00:43.870Z,11.41
2022-11-22T20:03:14.206Z,11.47
2022-11-22T20:05:43.002Z,11.49
2022-11-22T20:08:11.466Z,11.50
2022-11-22T20:10:40.076Z,11.48
2022-11-22T20:13:10.732Z,11.49
2022-11-22T20:15:40.532Z,11.45
2022-11-22T20:18:08.884Z,11.46
2022-11-22T20:20:37.272Z,11.45
2022-11-22T20:23:05.755Z,11.43
2022-11-22T20:25:34.085Z,11.43
2022-11-22T20:28:02.367Z,11.43
2022-11-22T20:30:30.744Z,11.41
2022-11-22T20:33:00.486Z,11.43
2022-11-22T20:35:28.806Z,11.43
2022-11-22T20:37:57.129Z,11.44
2022-11-22T20:40:25.418Z,11.45
2022-11-22T20:42:53.624Z,11.49
2022-11-22T20:45:21.909Z,11.51
2022-11-22T20:47:50.482Z,11.55
2022-11-22T20:50:21.065Z,11.58
2022-11-22T20:52:49.572Z,11.60
2022-11-22T20:55:17.775Z,11.61
2022-11-22T20:57:45.957Z,11.64
2022-11-22T21:00:14.875Z,11.64
2022-11-22T21:02:43.032Z,11.66
2022-11-22T21:05:12.198Z,11.70
2022-11-22T21:07:42.083Z,11.74
2022-11-22T21:10:10.751Z,11.75
2022-11-22T21:12:39.065Z,11.79
2022-11-22T21:15:08.154Z,11.78
2022-11-22T21:17:46.033Z,11.81
2022-11-22T21:20:24.303Z,11.81
2022-11-22T21:22:55.242Z,11.85
2022-11-22T21:25:23.642Z,11.83
2022-11-22T21:27:52.554Z,11.82
2022-11-22T21:30:21.157Z,11.68
2022-11-22T21:32:49.450Z,11.80
2022-11-22T21:35:17.886Z,11.76
2022-11-22T21:37:46.106Z,11.73
2022-11-22T21:40:16.300Z,11.75
2022-11-22T21:42:44.864Z,11.75
2022-11-22T21:45:13.133Z,11.66
2022-11-22T21:47:41.498Z,11.76
2022-11-22T21:50:11.955Z,11.81
2022-11-22T21:52:40.382Z,11.84
2022-11-22T21:55:09.867Z,11.81
2022-11-22T21:57:39.763Z,11.78
2022-11-22T22:00:09.495Z,11.82
2022-11-22T22:02:37.803Z,11.80
2022-11-22T22:05:06.618Z,11.86
2022-11-22T22:07:51.996Z,11.78
2022-11-22T22:10:21.561Z,11.83
2022-11-22T22:12:53.182Z,11.78
2022-11-22T22:15:21.642Z,11.82
2022-11-22T22:17:49.906Z,11.74
2022-11-22T22:20:18.300Z,11.79
2022-11-22T22:22:47.026Z,11.79
2022-11-22T22:25:15.899Z,11.87
2022-11-22T22:27:44.799Z,11.84
2022-11-22T22:30:16.963Z,11.88
2022-11-22T22:32:45.356Z,11.91
2022-11-22T22:35:13.655Z,11.89
2022-11-22T22:37:41.902Z,11.82
2022-11-22T22:40:10.447Z,11.86
2022-11-22T22:42:38.752Z,11.78
2022-11-22T22:45:08.047Z,11.71
2022-11-22T22:47:37.813Z,11.71
2022-11-22T22:50:07.029Z,11.79
2022-11-22T22:52:35.574Z,11.77
2022-11-22T22:55:03.925Z,11.74
2022-11-22T22:57:32.157Z,11.65
2022-11-22T23:00:00.709Z,11.76
2022-11-22T23:02:29.216Z,11.79
2022-11-22T23:04:58.926Z,11.80
2022-11-22T23:07:27.230Z,11.87
2022-11-22T23:09:55.548Z,11.82
2022-11-22T23:12:23.768Z,11.79
2022-11-22T23:14:51.978Z,11.75
2022-11-22T23:17:20.524Z,11.76
2022-11-22T23:19:48.709Z,11.75
2022-11-22T23:22:23.254Z,11.72
2022-11-22T23:24:54.041Z,11.79
2022-11-22T23:27:22.285Z,11.81
2022-11-22T23:29:50.586Z,11.76
2022-11-22T23:32:18.992Z,11.76
2022-11-22T23:34:47.336Z,11.76
2022-11-22T23:37:15.766Z,11.74
2022-11-22T23:39:45.418Z,11.63
2022-11-22T23:46:04.337Z,11.72
2022-11-22T23:48:32.662Z,11.71
2022-11-22T23:51:04.024Z,11.72
2022-11-22T23:53:32.375Z,11.80
2022-11-22T23:56:06.159Z,11.88
2022-11-22T23:58:34.583Z,11.79
